This is the latest recevied weather packets stored in our database for station/object KF7IOR. If no packets are shown the sender has not sent any weather packets the latest 10 day(s).
| Time | Temp. | Humidity | Pressure | Rain* | Wind** | Luminosity | Snow |
|---|---|---|---|---|---|---|---|
| 1777872937 | 22.22° C | 44% | 1007 hPa | 0 mm | - | 0 W/m² | - |
| 1777872036 | 22.78° C | 46% | 1006.9 hPa | 0 mm | - | 0 W/m² | - |
| 1777869055 | 23.33° C | 48% | 1006.7 hPa | 0 mm | - | 0 W/m² | - |
| 1777868435 | 23.89° C | 46% | 1006.7 hPa | 0 mm | - | 0 W/m² | - |
| 1777867248 | 25.56° C | 42% | 1006.4 hPa | 0 mm | - | 0 W/m² | - |
| 1777866935 | 25.56° C | 40% | 1006.3 hPa | 0 mm | - | 0 W/m² | - |
| 1777864235 | 27.78° C | 37% | 1005.8 hPa | 0 mm | - | 7 W/m² | - |
| 1777863334 | 28.33° C | 35% | 1005.8 hPa | 0 mm | - | 14 W/m² | - |
| 1777863034 | 28.33° C | 34% | 1005.8 hPa | 0 mm | - | 16 W/m² | - |
| 1777861538 | 30° C | 31% | 1005.7 hPa | 0 mm | - | 72 W/m² | - |
| 1777859734 | 31.67° C | 27% | 1005.7 hPa | 0 mm | - | 160 W/m² | - |
| 1777859436 | 31.67° C | 28% | 1005.7 hPa | 0 mm | - | 178 W/m² | - |
| 1777859149 | 31.67° C | 27% | 1005.8 hPa | 0 mm | - | 193 W/m² | - |
| 1777856134 | 32.78° C | 25% | 1006.2 hPa | 0 mm | - | 330 W/m² | - |
| 1777855834 | 32.78° C | 25% | 1006.3 hPa | 0 mm | - | 345 W/m² | - |
| 1777855235 | 32.78° C | 24% | 1006.4 hPa | 0 mm | - | 374 W/m² | - |
| 1777854935 | 32.78° C | 24% | 1006.5 hPa | 0 mm | - | 396 W/m² | - |
| 1777854644 | 32.78° C | 24% | 1006.5 hPa | 0 mm | - | 401 W/m² | - |
| 1777852533 | 33.33° C | 24% | 1006.6 hPa | 0 mm | - | 494 W/m² | - |
| 1777852235 | 32.78° C | 24% | 1006.6 hPa | 0 mm | - | 508 W/m² | - |
| 1777849261 | 33.33° C | 26% | 1007.2 hPa | 0 mm | - | 626 W/m² | - |
| 1777848634 | 33.33° C | 25% | 1007.3 hPa | 0 mm | - | 650 W/m² | - |
| 1777847734 | 33.89° C | 26% | 1007.5 hPa | 0 mm | - | 673 W/m² | - |
| 1777844754 | 32.78° C | 29% | 1008.1 hPa | 0 mm | - | 754 W/m² | - |
| 1777844434 | 32.78° C | 30% | 1008.1 hPa | 0 mm | - | 758 W/m² | - |
* Rain latest hour (hover to see other rain measurements)
** Current wind speed in m/s (hover to see current wind gust speed)